AirNav   Bose Proflight Series 2 Wireless Aviation Headset
 
 1023 users online  

0FA3 Brighton Helipad Heliport
Brighton, Florida, USA

GOING TO BRIGHTON?


FAA INFORMATION EFFECTIVE 07 NOVEMBER 2019

Location

FAA Identifier: 0FA3
Lat/Long: 27-04-33.0000N 081-04-16.2000W
27-04.550000N 081-04.270000W
27.0758333,-81.0711667
(estimated)
Elevation: 23.5 ft. / 7 m
From city: 16 miles NE of BRIGHTON, FL
Time zone: UTC -5 (UTC -4 during Daylight Saving Time)
Zip code: 33471

Heliport Operations

Heliport use: Private use. Permission required prior to landing
Activation date: 10/2015
Control tower: no
ARTCC: MIAMI CENTER
FSS: MIAMI FLIGHT SERVICE STATION
Attendance: 
Wind indicator: yes
Segmented circle: yes

Heliport Communications

WX AWOS-3 at OBE (16 nm NE): 118.675 (863-467-1148)

Nearby radio navigation aids

VOR radial/distance  VOR name  Freq  Var
LBVr048/22.7LA BELLE VORTAC110.4001E
PHKr311/26.9PAHOKEE VOR/DME115.4000E

Heliport Services

Fuel available: A

Runway Information

Helipad H1

Dimensions: 20 x 20 ft. / 6 x 6 m
Surface: concrete
Traffic pattern: leftleft

Heliport Ownership and Management from official FAA records

Ownership: Privately-owned
Owner: SEMINOLE TRIBE OF FLORIDA
6300 STERLING ROAD
HOLLYWOOD, FL 33440
Manager: PEDRO RODRIGUEZ
35201 EAGLES LANDING
CLEWISTON, FL 33440
Phone 954-410-1396

Additional Remarks

FOR CD CTC MIAMI ARTCC AT 305-716-1731.

Instrument Procedures

There are no published instrument procedures at 0FA3.

Some nearby airports with instrument procedures:

KOBE - Okeechobee County Airport (16 nm NE)
2IS - Airglades Airport (20 nm S)
KPHK - Palm Beach County Glades Airport (27 nm SE)
KSEF - Sebring Regional Airport (27 nm NW)
X14 - La Belle Municipal Airport (28 nm SW)
 
Loc | Ops | Rwys | IFR | FBO | Links
Com | Nav | Svcs | Stats | Notes
Aerial photo
No photo
 
Airport distance calculator
Flying to Brighton Helipad Heliport? Find the distance to fly.

From to 0FA3

Sunrise and sunset
Times for 17-Nov-2019
 Local
(UTC-5)
 Zulu
(UTC)
Morning civil twilight06:2211:22
Sunrise06:4711:47
Sunset17:3222:32
Evening civil twilight17:5622:56

Current date and time
Zulu (UTC)  18-Nov-2019 02:36:29
Local (UTC-5)  17-Nov-2019 21:36:29
 
METAR
KOBE 
16nm NE 
180215Z AUTO 31006KT 10SM OVC012 12/11 A2990 RMK AO2
KSEF 
27nm NW 
180215Z AUTO 33006KT 10SM OVC013 13/10 A2992 RMK AO2 T01270103
TAF
KFPR 
45nm NE 
171730Z 1718/1818 31011KT P6SM OVC013 FM172200 32011KT P6SM SCT015 BKN025 FM180200 33008KT P6SM BKN030 FM181500 32007KT P6SM SCT035
KSUA 
46nm E 
180124Z 1801/1824 31006KT P6SM OVC007 TEMPO 1801/1803 5SM -DZ FM180600 29003KT P6SM BKN012 OVC020 FM180900 29004KT P6SM SCT015 BKN025 FM181500 28009KT P6SM SCT035
KVRB 
49nm NE 
180123Z 1801/1824 30007KT P6SM OVC006 TEMPO 1801/1804 5SM BR FM180600 29005KT P6SM OVC012 FM180900 29005KT P6SM SCT015 BKN025 FM181500 28010KT P6SM SCT035
KRSW 
49nm SW 
172112Z 1721/1818 36006KT P6SM OVC013 FM181000 34004KT P6SM SCT015 SCT250 FM181400 31009KT P6SM FEW035 SCT250
NOTAMs
Click for the latest NOTAMs
NOTAMs are issued by the DoD/FAA and will open in a separate window not controlled by AirNav.

 

 
 

Would you like to see your business listed on this page?

 If your business provides an interesting product or service to pilots, flight crews, aircraft, or users of the Brighton Helipad Heliport, you should consider listing it here.  To start the listing process, click on the button below
 
Add a business
 

Other Pages about Brighton Helipad Heliport

Update a link
 
Copyright © AirNav, LLC. All rights reserved. Privacy Policy  Contact